Time;durP1;ratioP1;P1;durP2;ratioP2;P2;SDS_P1;SDS_P2;PMS_P1;PMS_P2;Temp;Humidity;BMP_temperature;BMP_pressure;BME280_temperature;BME280_humidity;BME280_pressure;Samples;Min_cycle;Max_cycle;Signal;HPM_P1;HPM_P2
2022/01/05 00:05:04;;;;;;;1.25;0.63;;;;;;;;;;20832186;28;20482;-58
2022/01/05 00:15:06;;;;;;;2.13;0.82;;;;;;;;;;20830694;28;20095;-61
2022/01/05 00:25:08;;;;;;;1.77;0.60;;;;;;;;;;20830945;28;20046;-60
2022/01/05 00:35:10;;;;;;;0.93;0.60;;;;;;;;;;20830801;28;20077;-60
2022/01/05 00:45:13;;;;;;;1.45;0.60;;;;;;;;;;20829898;28;20093;-58
2022/01/05 00:55:15;;;;;;;0.75;0.50;;;;;;;;;;20829212;28;20049;-58
2022/01/05 01:05:17;;;;;;;2.03;0.68;;;;;;;;;;20829727;28;20513;-55
2022/01/05 01:15:20;;;;;;;1.27;0.60;;;;;;;;;;20828109;28;20058;-55
2022/01/05 01:25:22;;;;;;;1.33;0.60;;;;;;;;;;20827995;28;20072;-55
2022/01/05 01:35:25;;;;;;;1.45;0.60;;;;;;;;;;20831177;28;20151;-55
2022/01/05 01:45:27;;;;;;;6.38;0.80;;;;;;;;;;20842982;28;20049;-53
2022/01/05 01:55:29;;;;;;;1.92;0.90;;;;;;;;;;20841174;28;20063;-59
2022/01/05 02:05:32;;;;;;;1.55;0.80;;;;;;;;;;20840927;28;20049;-58
2022/01/05 02:15:35;;;;;;;1.42;0.60;;;;;;;;;;20840011;28;20053;-57
2022/01/05 02:25:39;;;;;;;0.95;0.60;;;;;;;;;;20839747;28;20054;-55
2022/01/05 02:35:41;;;;;;;0.93;0.65;;;;;;;;;;20838113;28;20064;-54
2022/01/05 02:45:46;;;;;;;2.57;0.70;;;;;;;;;;20836814;28;20049;-55
2022/01/05 02:55:54;;;;;;;2.88;0.70;;;;;;;;;;20836482;28;20053;-55
2022/01/05 03:06:01;;;;;;;2.17;1.13;;;;;;;;;;20837066;28;20045;-59
2022/01/05 03:16:05;;;;;;;1.63;0.80;;;;;;;;;;20835752;28;20053;-58
2022/01/05 03:26:08;;;;;;;0.90;0.60;;;;;;;;;;20834048;28;20045;-57
2022/01/05 03:36:12;;;;;;;2.35;0.60;;;;;;;;;;20833305;28;20052;-59
2022/01/05 03:46:17;;;;;;;1.23;0.60;;;;;;;;;;20833271;28;20057;-58
2022/01/05 03:56:20;;;;;;;4.65;0.77;;;;;;;;;;20831711;28;20115;-56
2022/01/05 04:06:36;;;;;;;2.03;1.50;;;;;;;;;;20832538;28;20049;-55
2022/01/05 04:16:43;;;;;;;3.72;0.85;;;;;;;;;;20830763;28;20402;-58
2022/01/05 04:26:48;;;;;;;2.40;0.65;;;;;;;;;;20828945;28;20053;-55
2022/01/05 04:36:50;;;;;;;3.78;0.70;;;;;;;;;;20829498;28;20409;-55
2022/01/05 04:46:53;;;;;;;1.23;0.70;;;;;;;;;;20829506;28;20481;-60
2022/01/05 04:56:58;;;;;;;5.10;1.10;;;;;;;;;;20828732;28;20103;-56
2022/01/05 05:07:00;;;;;;;1.88;0.90;;;;;;;;;;20828325;28;20413;-54
2022/01/05 05:17:03;;;;;;;2.45;0.93;;;;;;;;;;20842237;28;20071;-57
2022/01/05 05:27:07;;;;;;;1.80;0.77;;;;;;;;;;20843837;28;20050;-53
2022/01/05 05:37:09;;;;;;;2.53;0.80;;;;;;;;;;20843238;28;20437;-54
2022/01/05 05:47:11;;;;;;;1.15;0.75;;;;;;;;;;20842187;28;20042;-60
2022/01/05 05:57:13;;;;;;;2.83;1.15;;;;;;;;;;20840875;28;20049;-58
2022/01/05 06:07:15;;;;;;;1.55;0.70;;;;;;;;;;20840600;28;20409;-57
2022/01/05 06:17:17;;;;;;;1.35;0.60;;;;;;;;;;20840933;28;20060;-56
2022/01/05 06:27:20;;;;;;;1.15;0.60;;;;;;;;;;20839640;28;20046;-57
2022/01/05 06:37:23;;;;;;;3.42;0.88;;;;;;;;;;20838161;28;20057;-55
2022/01/05 06:47:25;;;;;;;2.83;1.20;;;;;;;;;;20837782;28;20049;-54
2022/01/05 06:57:28;;;;;;;2.85;1.40;;;;;;;;;;20836517;28;20517;-56
2022/01/05 07:07:31;;;;;;;2.72;0.95;;;;;;;;;;20835258;28;20529;-58
2022/01/05 07:17:34;;;;;;;1.08;0.73;;;;;;;;;;20834502;28;20053;-59
2022/01/05 07:27:37;;;;;;;1.65;0.95;;;;;;;;;;20833248;28;20494;-56
2022/01/05 07:37:42;;;;;;;3.22;1.02;;;;;;;;;;20831828;28;20049;-59
2022/01/05 07:47:46;;;;;;;1.73;0.80;;;;;;;;;;20832371;28;20049;-54
2022/01/05 07:58:08;;;;;;;1.50;0.80;;;;;;;;;;20831393;28;20415;-55
2022/01/05 08:08:29;;;;;;;1.13;0.60;;;;;;;;;;20831742;28;20053;-52
2022/01/05 08:18:46;;;;;;;3.17;1.05;;;;;;;;;;20829916;28;20081;-54
2022/01/05 08:28:55;;;;;;;2.58;1.27;;;;;;;;;;20829935;28;20140;-58
2022/01/05 08:39:04;;;;;;;2.92;1.48;;;;;;;;;;20829328;28;20053;-58
2022/01/05 08:49:06;;;;;;;2.17;1.95;;;;;;;;;;20840198;28;20061;-60
2022/01/05 08:59:08;;;;;;;2.70;1.38;;;;;;;;;;20845613;28;20053;-58
2022/01/05 09:09:14;;;;;;;2.00;0.80;;;;;;;;;;20844660;28;20045;-59
2022/01/05 09:19:16;;;;;;;1.27;0.63;;;;;;;;;;20844440;28;20409;-59
2022/01/05 09:29:18;;;;;;;5.70;1.13;;;;;;;;;;20843285;28;20077;-57
2022/01/05 09:49:56;;;;;;;2.15;1.10;;;;;;;;;;20840692;28;20057;-56
2022/01/05 09:59:59;;;;;;;2.35;0.80;;;;;;;;;;20839526;28;20060;-59
2022/01/05 10:10:01;;;;;;;1.60;1.00;;;;;;;;;;20840576;28;20045;-60
2022/01/05 10:20:07;;;;;;;1.23;0.63;;;;;;;;;;20840148;28;20136;-59
2022/01/05 10:30:13;;;;;;;3.03;0.90;;;;;;;;;;20837792;28;20053;-61
2022/01/05 10:40:22;;;;;;;0.82;0.55;;;;;;;;;;20837562;28;20060;-59
2022/01/05 10:50:24;;;;;;;2.55;1.00;;;;;;;;;;20836236;28;20053;-53
2022/01/05 11:00:32;;;;;;;1.30;0.80;;;;;;;;;;20844533;28;20382;-53
2022/01/05 11:10:34;;;;;;;2.60;0.90;;;;;;;;;;20892681;28;20072;-55
2022/01/05 11:20:37;;;;;;;1.80;0.80;;;;;;;;;;20873428;28;20049;-53
2022/01/05 11:30:39;;;;;;;1.85;0.80;;;;;;;;;;20833015;28;20559;-56
2022/01/05 11:40:46;;;;;;;3.03;1.02;;;;;;;;;;20832326;28;20060;-52
2022/01/05 11:50:56;;;;;;;6.78;1.30;;;;;;;;;;20877212;28;20053;-52
2022/01/05 12:01:13;;;;;;;2.60;0.80;;;;;;;;;;20854143;28;20049;-62
2022/01/05 12:11:46;;;;;;;2.63;0.73;;;;;;;;;;20830683;28;20041;-61
2022/01/05 12:21:53;;;;;;;4.25;1.20;;;;;;;;;;20657823;28;20050;-55
2022/01/05 12:31:56;;;;;;;2.50;0.70;;;;;;;;;;20656752;28;20062;-53
2022/01/05 12:42:19;;;;;;;2.80;0.90;;;;;;;;;;20656820;28;20062;-67
2022/01/05 12:52:21;;;;;;;2.80;0.80;;;;;;;;;;20708255;28;20473;-60
2022/01/05 13:02:26;;;;;;;1.88;0.82;;;;;;;;;;20828524;28;20049;-63
2022/01/05 13:12:30;;;;;;;2.42;1.08;;;;;;;;;;20828795;28;20490;-64
2022/01/05 13:22:44;;;;;;;2.50;1.13;;;;;;;;;;20827930;28;20074;-66
2022/01/05 13:32:48;;;;;;;1.88;0.90;;;;;;;;;;20832709;28;20092;-61
2022/01/05 13:42:56;;;;;;;2.47;0.88;;;;;;;;;;20842392;28;20053;-65
2022/01/05 13:53:26;;;;;;;2.08;1.08;;;;;;;;;;20841040;28;20136;-65
2022/01/05 14:03:40;;;;;;;3.72;1.60;;;;;;;;;;20839080;28;20053;-59
2022/01/05 14:13:45;;;;;;;1.87;0.87;;;;;;;;;;20840692;28;20060;-60
2022/01/05 14:23:48;;;;;;;2.35;1.17;;;;;;;;;;20839215;28;20501;-61
2022/01/05 14:33:54;;;;;;;1.52;0.90;;;;;;;;;;20839154;28;20049;-64
2022/01/05 14:44:10;;;;;;;1.55;0.77;;;;;;;;;;20836416;28;20046;-65
2022/01/05 14:54:12;;;;;;;2.10;1.05;;;;;;;;;;20837376;28;20187;-61
2022/01/05 15:04:15;;;;;;;2.00;0.98;;;;;;;;;;20837207;28;20084;-66
2022/01/05 15:14:17;;;;;;;2.88;1.55;;;;;;;;;;20835246;28;20045;-63
2022/01/05 15:24:19;;;;;;;4.63;2.78;;;;;;;;;;20835331;28;20485;-59
2022/01/05 15:34:21;;;;;;;3.78;1.80;;;;;;;;;;20832817;28;20057;-61
2022/01/05 15:44:24;;;;;;;3.78;2.17;;;;;;;;;;20833545;28;20042;-61
2022/01/05 15:54:26;;;;;;;4.00;1.65;;;;;;;;;;20831533;28;20061;-62
2022/01/05 16:04:29;;;;;;;3.38;1.17;;;;;;;;;;20831848;28;20506;-60
2022/01/05 16:14:31;;;;;;;8.15;2.92;;;;;;;;;;20830947;28;20054;-60
2022/01/05 16:24:33;;;;;;;5.05;1.90;;;;;;;;;;20831037;28;20056;-60
2022/01/05 16:34:36;;;;;;;2.90;1.52;;;;;;;;;;20844364;28;20053;-62
2022/01/05 16:44:38;;;;;;;5.95;1.85;;;;;;;;;;20830185;28;20045;-62
2022/01/05 16:54:44;;;;;;;5.18;2.60;;;;;;;;;;20828272;28;20057;-63
2022/01/05 17:04:45;;;;;;;;;;;;;;;;;;20830070;28;20091;-63
2022/01/05 17:14:48;;;;;;;5.82;2.78;;;;;;;;;;20845681;28;19927;-63
2022/01/05 17:24:50;;;;;;;4.38;1.95;;;;;;;;;;20844587;28;20055;-61
2022/01/05 17:34:52;;;;;;;2.55;1.35;;;;;;;;;;20842997;28;20053;-60
2022/01/05 17:44:55;;;;;;;3.20;1.50;;;;;;;;;;20842773;28;20081;-61
2022/01/05 17:54:59;;;;;;;2.65;1.35;;;;;;;;;;20856556;28;20140;-63
2022/01/05 18:05:01;;;;;;;4.45;1.70;;;;;;;;;;20840760;28;20133;-63
2022/01/05 18:15:03;;;;;;;4.00;1.67;;;;;;;;;;20841080;28;20056;-62
2022/01/05 18:25:05;;;;;;;5.30;2.90;;;;;;;;;;20839501;28;20072;-64
2022/01/05 18:35:08;;;;;;;3.17;1.70;;;;;;;;;;20838599;28;20480;-62
2022/01/05 18:45:11;;;;;;;3.67;1.50;;;;;;;;;;20852737;28;20056;-63
2022/01/05 18:55:13;;;;;;;3.88;2.13;;;;;;;;;;20837011;28;20059;-62
2022/01/05 19:05:15;;;;;;;5.25;2.88;;;;;;;;;;20837007;28;20395;-59
2022/01/05 19:15:17;;;;;;;3.65;2.50;;;;;;;;;;20835378;28;20045;-60
2022/01/05 19:25:19;;;;;;;3.38;2.22;;;;;;;;;;20834798;28;20414;-62
2022/01/05 19:35:21;;;;;;;5.05;2.25;;;;;;;;;;20832885;28;20053;-63
2022/01/05 19:45:23;;;;;;;4.78;2.92;;;;;;;;;;20833504;28;20061;-64
2022/01/05 19:55:27;;;;;;;4.55;2.25;;;;;;;;;;20831981;28;20120;-61
2022/01/05 20:05:31;;;;;;;4.40;2.58;;;;;;;;;;20831846;28;20056;-61
2022/01/05 20:15:34;;;;;;;4.47;2.55;;;;;;;;;;20831733;28;20049;-60
2022/01/05 20:25:36;;;;;;;3.47;2.15;;;;;;;;;;20830606;28;20049;-59
2022/01/05 20:35:39;;;;;;;3.83;1.98;;;;;;;;;;20837715;28;20045;-63
2022/01/05 20:45:42;;;;;;;5.85;4.30;;;;;;;;;;20831300;28;20049;-63
2022/01/05 20:55:44;;;;;;;5.00;3.08;;;;;;;;;;20828585;28;20172;-59
2022/01/05 21:05:46;;;;;;;5.93;3.65;;;;;;;;;;20825845;28;20049;-64
2022/01/05 21:15:48;;;;;;;9.20;3.75;;;;;;;;;;20829678;28;20049;-62
2022/01/05 21:25:50;;;;;;;5.90;3.00;;;;;;;;;;20827184;28;20500;-63
2022/01/05 21:35:52;;;;;;;5.13;2.47;;;;;;;;;;20827644;28;20141;-61
2022/01/05 21:45:55;;;;;;;12.55;7.40;;;;;;;;;;20826589;28;20049;-62
2022/01/05 21:55:57;;;;;;;4.53;2.88;;;;;;;;;;20833471;28;20482;-63
2022/01/05 22:05:59;;;;;;;4.07;2.80;;;;;;;;;;20839629;28;20053;-62
2022/01/05 22:16:01;;;;;;;6.82;4.32;;;;;;;;;;20838554;28;20167;-62
2022/01/05 22:26:03;;;;;;;6.65;4.60;;;;;;;;;;20838146;28;20119;-62
2022/01/05 22:36:05;;;;;;;7.20;5.13;;;;;;;;;;20838777;28;20444;-64
2022/01/05 22:46:07;;;;;;;7.78;5.88;;;;;;;;;;20839960;28;20073;-63
2022/01/05 22:56:09;;;;;;;8.63;7.20;;;;;;;;;;20837702;28;20061;-64
2022/01/05 23:06:10;;;;;;;7.45;5.50;;;;;;;;;;20834638;28;20049;-65
2022/01/05 23:16:12;;;;;;;11.82;5.88;;;;;;;;;;20836251;28;20490;-62
2022/01/05 23:26:14;;;;;;;7.15;6.10;;;;;;;;;;20835832;28;20053;-62
2022/01/05 23:36:16;;;;;;;4.65;3.45;;;;;;;;;;20834972;28;20053;-63
2022/01/05 23:46:19;;;;;;;8.55;4.75;;;;;;;;;;20834218;28;20106;-62
2022/01/05 23:56:21;;;;;;;5.63;4.00;;;;;;;;;;20833141;28;20060;-62
